Time;durP1;ratioP1;P1;durP2;ratioP2;P2;SDS_P1;SDS_P2;PMS_P1;PMS_P2;Temp;Humidity;BMP_temperature;BMP_pressure;BME280_temperature;BME280_humidity;BME280_pressure;Samples;Min_cycle;Max_cycle;Signal;HPM_P1;HPM_P2
2023/01/28 08:16:21;;;;;;;;;;;;;;;-1.10;100.00;96952.03;4994445;28;19985;-87
2023/01/28 08:18:47;;;;;;;;;;;;;;;-1.00;100.00;96955.88;4994046;28;19917;-85
2023/01/28 08:21:15;;;;;;;;;;;;;;;-0.97;100.00;96946.25;4968603;28;19918;-81
2023/01/28 08:23:40;;;;;;;;;;;;;;;-1.03;100.00;96962.00;4985290;28;19971;-81
2023/01/28 08:26:06;;;;;;;;;;;;;;;-1.08;100.00;96960.53;4987608;28;19956;-80
2023/01/28 08:28:33;;;;;;;;;;;;;;;-1.07;100.00;96959.66;4999208;28;19917;-82
2023/01/28 08:31:00;;;;;;;;;;;;;;;-1.06;100.00;96962.16;4887462;28;19925;-79
2023/01/28 08:33:26;;;;;;;;;;;;;;;-0.88;100.00;96967.34;4776115;28;19949;-77
2023/01/28 08:35:52;;;;;;;;;;;;;;;-0.97;100.00;96968.63;4791028;28;20011;-77
2023/01/28 08:38:19;;;;;;;;;;;;;;;-1.02;100.00;96962.84;4775550;28;20001;-78
2023/01/28 08:40:54;;;;;;;;;;;;;;;-1.01;100.00;96969.66;4779048;28;19918;-78
2023/01/28 08:43:20;;;;;;;;;;;;;;;-0.97;100.00;96969.47;4921281;28;19937;-79
2023/01/28 08:45:45;;;;;;;;;;;;;;;-0.95;100.00;96962.47;4777315;28;20289;-79
2023/01/28 08:48:14;;;;;;;;;;;;;;;-0.89;100.00;96963.13;4747327;28;20744;-78
2023/01/28 08:50:39;;;;;;;;;;;;;;;-0.98;100.00;96969.53;4768165;28;20325;-78
2023/01/28 08:53:07;;;;;;;;;;;;;;;-0.94;100.00;96971.06;4787217;28;19947;-78
2023/01/28 08:55:33;;;;;;;;;;;;;;;-1.00;100.00;96967.03;4808798;28;19922;-78
2023/01/28 08:58:06;;;;;;;;;;;;;;;-0.95;100.00;96961.66;4802040;28;20344;-79
2023/01/28 09:00:32;;;;;;;;;;;;;;;-0.90;100.00;96966.63;4793440;28;21111;-78
2023/01/28 09:02:58;;;;;;;;;;;;;;;-0.91;100.00;96976.06;4884359;28;19929;-77
2023/01/28 09:05:23;;;;;;;;;;;;;;;-0.93;100.00;96974.50;4805175;28;19921;-77
2023/01/28 09:07:49;;;;;;;;;;;;;;;-1.00;100.00;96976.53;4807613;28;19921;-77
2023/01/28 09:10:15;;;;;;;;;;;;;;;-0.95;100.00;96977.13;4840108;28;20380;-79
2023/01/28 09:12:41;;;;;;;;;;;;;;;-0.86;100.00;96976.72;4833878;28;19917;-80
2023/01/28 09:15:07;;;;;;;;;;;;;;;-0.90;100.00;96982.94;4785894;28;20024;-80
2023/01/28 09:17:33;;;;;;;;;;;;;;;-0.84;100.00;96982.66;4772010;28;19921;-80
2023/01/28 09:20:00;;;;;;;;;;;;;;;-0.91;100.00;96981.25;4804944;28;20301;-79
2023/01/28 09:22:26;;;;;;;;;;;;;;;-0.88;100.00;96982.84;4629928;28;19928;-81
2023/01/28 09:24:51;;;;;;;;;;;;;;;-0.89;100.00;96983.78;4549552;28;21640;-77
2023/01/28 09:27:20;;;;;;;;;;;;;;;-0.82;100.00;96988.56;4477371;28;20798;-77
2023/01/28 09:29:49;;;;;;;;;;;;;;;-0.77;100.00;96989.22;4420781;28;19941;-78
2023/01/28 09:32:14;;;;;;;;;;;;;;;-0.75;100.00;96995.13;4624292;28;19922;-78
2023/01/28 09:34:40;;;;;;;;;;;;;;;-0.81;100.00;96987.66;4739971;28;19921;-78
2023/01/28 09:37:06;;;;;;;;;;;;;;;-0.85;100.00;96993.88;4762358;28;19918;-78
2023/01/28 09:39:32;;;;;;;;;;;;;;;-0.75;100.00;97004.63;4757307;28;21229;-78
2023/01/28 09:42:15;;;;;;;;;;;;;;;-0.82;100.00;97005.81;4850203;28;19922;-78
2023/01/28 09:45:02;;;;;;;;;;;;;;;-0.91;100.00;97007.06;4886049;28;20317;-78
2023/01/28 09:47:34;;;;;;;;;;;;;;;-0.87;100.00;97011.19;4930107;28;19964;-78
2023/01/28 09:50:02;;;;;;;;;;;;;;;-0.97;100.00;97017.69;4945269;28;19928;-78
2023/01/28 09:52:29;;;;;;;;;;;;;;;-1.01;100.00;97021.28;4852369;28;20499;-78
2023/01/28 09:54:59;;;;;;;;;;;;;;;-0.92;100.00;97026.06;4832515;28;19964;-78
2023/01/28 09:57:34;;;;;;;;;;;;;;;-0.90;100.00;97019.09;4867838;28;19922;-78
2023/01/28 10:00:18;;;;;;;;;;;;;;;-0.92;100.00;97023.47;4883015;28;20381;-78
2023/01/28 10:03:04;;;;;;;;;;;;;;;-0.97;100.00;97018.53;4816366;28;20321;-78
2023/01/28 10:05:49;;;;;;;;;;;;;;;-0.85;100.00;97017.13;4847387;28;19913;-78
2023/01/28 10:08:37;;;;;;;;;;;;;;;-0.81;100.00;97016.06;4778100;28;20008;-78
2023/01/28 10:13:59;;;;;;;;;;;;;;;-0.68;100.00;97018.09;4757463;28;19928;-79
2023/01/28 10:16:45;;;;;;;;;;;;;;;-0.79;100.00;97016.00;4782903;28;19913;-78
2023/01/28 10:19:17;;;;;;;;;;;;;;;-0.75;100.00;97013.19;4757341;28;20396;-79
2023/01/28 10:21:46;;;;;;;;;;;;;;;-0.70;100.00;97013.00;4833083;28;19922;-77
2023/01/28 10:24:35;;;;;;;;;;;;;;;-0.63;100.00;97016.97;4894947;28;20455;-77
2023/01/28 10:27:08;;;;;;;;;;;;;;;-0.60;100.00;97013.41;4888424;28;19936;-78
2023/01/28 10:29:34;;;;;;;;;;;;;;;-0.55;100.00;97003.69;4870041;28;20008;-78
2023/01/28 10:32:05;;;;;;;;;;;;;;;-0.60;100.00;96996.16;4878990;28;20410;-78
2023/01/28 10:34:31;;;;;;;;;;;;;;;-0.57;100.00;97002.91;4905393;28;19918;-77
2023/01/28 10:36:58;;;;;;;;;;;;;;;-0.51;100.00;97000.88;4889098;28;19925;-77
2023/01/28 10:39:25;;;;;;;;;;;;;;;-0.55;100.00;96999.34;4912581;28;19914;-78
2023/01/28 10:41:51;;;;;;;;;;;;;;;-0.41;100.00;97003.88;4923137;28;20124;-77
2023/01/28 10:44:24;;;;;;;;;;;;;;;-0.49;100.00;96995.66;4920174;28;21480;-77
2023/01/28 10:46:52;;;;;;;;;;;;;;;-0.53;100.00;97002.72;4928697;28;19932;-77
2023/01/28 10:49:22;;;;;;;;;;;;;;;-0.56;100.00;96994.28;4927532;28;19929;-77
2023/01/28 10:51:47;;;;;;;;;;;;;;;-0.60;100.00;96995.34;4906431;28;20010;-79
2023/01/28 10:54:21;;;;;;;;;;;;;;;-0.59;100.00;96994.41;4966568;28;19930;-78
2023/01/28 10:56:48;;;;;;;;;;;;;;;-0.54;100.00;96995.03;4997736;28;19936;-79
2023/01/28 10:59:28;;;;;;;;;;;;;;;-0.47;100.00;96996.41;5000631;28;19917;-78
2023/01/28 11:02:15;;;;;;;;;;;;;;;-0.55;100.00;96991.59;5000905;28;19930;-79
2023/01/28 11:04:41;;;;;;;;;;;;;;;-0.50;100.00;96994.00;4978608;28;19924;-79
2023/01/28 11:07:18;;;;;;;;;;;;;;;-0.42;100.00;96988.44;4974451;28;19921;-78
2023/01/28 11:09:46;;;;;;;;;;;;;;;-0.40;100.00;96986.63;4972422;28;19914;-78
2023/01/28 11:12:22;;;;;;;;;;;;;;;-0.36;100.00;96994.16;4998213;28;20365;-78
2023/01/28 11:15:02;;;;;;;;;;;;;;;-0.40;100.00;96994.38;4976750;28;19913;-80
2023/01/28 11:17:30;;;;;;;;;;;;;;;-0.32;100.00;96990.50;4969060;28;19917;-78
2023/01/28 11:19:58;;;;;;;;;;;;;;;-0.39;100.00;96988.31;4977985;28;20336;-79
2023/01/28 11:22:24;;;;;;;;;;;;;;;-0.39;100.00;96988.31;4996781;28;19924;-79
2023/01/28 11:24:49;;;;;;;;;;;;;;;-0.27;100.00;96998.91;4980703;28;20298;-80
2023/01/28 11:27:33;;;;;;;;;;;;;;;-0.27;100.00;96992.88;5006756;28;19935;-82
2023/01/28 11:30:18;;;;;;;;;;;;;;;-0.28;100.00;96994.63;4974404;28;19918;-83
2023/01/28 11:33:06;;;;;;;;;;;;;;;-0.30;100.00;96993.03;4984898;28;19927;-80
2023/01/28 11:35:32;;;;;;;;;;;;;;;-0.22;100.00;96996.09;4980896;28;19964;-80
2023/01/28 11:38:00;;;;;;;;;;;;;;;-0.26;100.00;96999.72;4966047;28;19945;-80
2023/01/28 11:40:26;;;;;;;;;;;;;;;-0.32;100.00;96998.28;4952956;28;19921;-79
2023/01/28 11:42:55;;;;;;;;;;;;;;;-0.19;100.00;96995.09;4992505;28;19925;-80
2023/01/28 11:49:02;;;;;;;;;;;;;;;-0.26;100.00;96997.16;4986456;28;20021;-80
2023/01/28 11:51:30;;;;;;;;;;;;;;;-0.19;100.00;97000.28;4946599;28;19921;-80
2023/01/28 11:57:10;;;;;;;;;;;;;;;-0.14;100.00;96998.28;4996446;28;19960;-80
2023/01/28 12:00:01;;;;;;;;;;;;;;;-0.06;100.00;96993.59;4981814;28;19913;-83
2023/01/28 12:02:46;;;;;;;;;;;;;;;0.50;100.00;96987.28;4979097;28;19996;-84
2023/01/28 12:15:18;;;;;;;;;;;;;;;2.07;100.00;96970.06;4996750;28;20292;-84
2023/01/28 12:18:03;;;;;;;;;;;;;;;1.90;100.00;96952.03;5000358;28;19917;-84
2023/01/28 12:24:07;;;;;;;;;;;;;;;1.00;100.00;96951.91;4992509;28;19998;-79
2023/01/28 12:26:52;;;;;;;;;;;;;;;0.81;100.00;96952.91;4994255;28;19914;-79
2023/01/28 12:29:21;;;;;;;;;;;;;;;0.61;100.00;96955.72;4991932;28;19949;-78
2023/01/28 12:31:56;;;;;;;;;;;;;;;0.49;100.00;96953.75;5007023;28;20463;-79
2023/01/28 12:34:48;;;;;;;;;;;;;;;0.43;100.00;96963.47;4966380;28;19917;-79
2023/01/28 12:37:24;;;;;;;;;;;;;;;0.51;100.00;96960.53;4987975;28;19913;-79
2023/01/28 12:40:10;;;;;;;;;;;;;;;0.40;100.00;96963.66;4973281;28;20016;-79
2023/01/28 12:42:53;;;;;;;;;;;;;;;0.32;100.00;96959.78;4978623;28;19913;-79
2023/01/28 12:45:33;;;;;;;;;;;;;;;0.30;100.00;96966.78;4985357;28;19914;-83
2023/01/28 12:48:09;;;;;;;;;;;;;;;0.19;100.00;96981.09;4985528;28;19920;-81
2023/01/28 12:50:46;;;;;;;;;;;;;;;0.08;100.00;96972.22;4967392;28;19918;-82
2023/01/28 12:53:19;;;;;;;;;;;;;;;-0.03;100.00;96968.41;4977221;28;19999;-81
2023/01/28 12:56:18;;;;;;;;;;;;;;;-0.25;100.00;96976.38;4976136;28;19921;-81
2023/01/28 13:02:16;;;;;;;;;;;;;;;-0.17;100.00;96977.75;5009514;28;19936;-89
2023/01/28 13:04:41;;;;;;;;;;;;;;;-0.33;100.00;96972.50;4996562;28;19925;-89
2023/01/28 13:07:39;;;;;;;;;;;;;;;-0.30;100.00;96973.19;4999657;28;20337;-89
2023/01/28 13:10:44;;;;;;;;;;;;;;;-0.40;100.00;96977.13;4938381;29;19985;-89
2023/01/28 13:13:31;;;;;;;;;;;;;;;-0.43;100.00;96979.88;4979792;28;19917;-89
2023/01/28 13:16:34;;;;;;;;;;;;;;;-0.07;100.00;96977.25;4978452;28;19921;-88
2023/01/28 13:20:10;;;;;;;;;;;;;;;-0.20;100.00;96975.31;4997702;28;20025;-88
2023/01/28 13:22:59;;;;;;;;;;;;;;;-0.25;100.00;96978.13;4977185;28;20420;-89
2023/01/28 13:25:33;;;;;;;;;;;;;;;-0.25;100.00;96978.13;4961894;28;19936;-93
2023/01/28 13:28:09;;;;;;;;;;;;;;;-0.25;100.00;96976.38;4969113;28;19929;-90
2023/01/28 13:30:58;;;;;;;;;;;;;;;-0.30;100.00;96974.94;4975757;28;19988;-89
2023/01/28 13:33:28;;;;;;;;;;;;;;;-0.25;100.00;96975.53;4976810;28;20501;-90
2023/01/28 13:37:03;;;;;;;;;;;;;;;-0.20;100.00;96977.91;4954650;28;19969;-90
2023/01/28 13:40:13;;;;;;;;;;;;;;;-0.14;100.00;96977.59;4931723;29;19946;-90
2023/01/28 13:42:40;;;;;;;;;;;;;;;-0.15;100.00;96970.78;4954665;28;20376;-90
2023/01/28 13:45:17;;;;;;;;;;;;;;;-0.10;100.00;96979.13;4941547;29;19953;-90
2023/01/28 13:47:44;;;;;;;;;;;;;;;-0.08;100.00;96982.47;4977015;28;19921;-86
2023/01/28 13:50:34;;;;;;;;;;;;;;;-0.12;100.00;96991.31;4977646;28;19921;-87
2023/01/28 13:53:43;;;;;;;;;;;;;;;-0.07;100.00;96984.13;4969219;28;19988;-88
2023/01/28 13:56:21;;;;;;;;;;;;;;;0.00;100.00;96988.13;4949437;28;19975;-87
2023/01/28 13:59:56;;;;;;;;;;;;;;;-0.10;100.00;96987.75;4971145;28;19956;-88
2023/01/28 14:09:54;;;;;;;;;;;;;;;-0.22;100.00;96996.09;4990795;28;19940;-87
2023/01/28 14:12:35;;;;;;;;;;;;;;;-0.22;100.00;97003.84;4914593;29;19930;-87
2023/01/28 14:18:33;;;;;;;;;;;;;;;-0.34;100.00;97007.84;4992518;28;19924;-88
2023/01/28 14:21:34;;;;;;;;;;;;;;;-0.32;100.00;97011.19;4976569;28;20342;-89
2023/01/28 14:24:19;;;;;;;;;;;;;;;-0.41;100.00;97014.22;4937601;29;19922;-91
2023/01/28 14:27:12;;;;;;;;;;;;;;;-0.40;100.00;97018.47;4974146;28;19953;-90
2023/01/28 14:30:47;;;;;;;;;;;;;;;-0.36;100.00;97020.00;4992494;28;19971;-90
2023/01/28 14:33:38;;;;;;;;;;;;;;;-0.23;100.00;97022.84;4966230;28;20044;-89
2023/01/28 14:36:31;;;;;;;;;;;;;;;-0.28;100.00;97017.88;5005602;28;19917;-88
2023/01/28 14:42:51;;;;;;;;;;;;;;;-0.16;100.00;97036.31;4992077;28;20110;-89
2023/01/28 14:46:05;;;;;;;;;;;;;;;-0.25;100.00;97032.41;5004792;28;19917;-89
2023/01/28 14:49:05;;;;;;;;;;;;;;;-0.19;100.00;97031.28;4945085;28;19984;-90
2023/01/28 14:52:00;;;;;;;;;;;;;;;-0.42;100.00;97045.31;4933505;29;20005;-90
2023/01/28 14:54:38;;;;;;;;;;;;;;;-0.38;100.00;97042.50;4953094;29;19914;-90
2023/01/28 15:04:48;;;;;;;;;;;;;;;-0.35;100.00;97042.34;4880862;29;19923;-92
2023/01/28 15:07:16;;;;;;;;;;;;;;;-0.44;100.00;97047.94;4918820;29;19914;-92
2023/01/28 15:09:41;;;;;;;;;;;;;;;-0.50;100.00;97051.66;4968539;28;19914;-92
2023/01/28 15:12:10;;;;;;;;;;;;;;;-0.45;100.00;97050.59;4994499;28;20316;-92
2023/01/28 15:14:35;;;;;;;;;;;;;;;-0.50;100.00;97054.25;4993764;28;19936;-92
2023/01/28 15:17:18;;;;;;;;;;;;;;;-0.57;100.00;97052.00;4994616;28;19922;-92
2023/01/28 15:19:44;;;;;;;;;;;;;;;-0.59;100.00;97053.84;4979589;28;19921;-93
2023/01/28 15:22:14;;;;;;;;;;;;;;;-0.57;100.00;97050.28;4989986;28;19909;-92
2023/01/28 15:24:42;;;;;;;;;;;;;;;-0.56;100.00;97054.53;5001272;28;19913;-91
2023/01/28 15:30:24;;;;;;;;;;;;;;;-0.52;100.00;97061.22;5009042;28;19917;-93
2023/01/28 15:36:19;;;;;;;;;;;;;;;-0.59;100.00;97069.34;4993634;28;20422;-92
2023/01/28 15:38:48;;;;;;;;;;;;;;;-0.62;100.00;97074.63;4994635;28;19957;-95
2023/01/28 15:48:07;;;;;;;;;;;;;;;-0.62;100.00;97085.81;4996099;28;19998;-94
2023/01/28 15:51:19;;;;;;;;;;;;;;;-0.65;100.00;97088.53;4984121;28;19976;-95
2023/01/28 15:59:32;;;;;;;;;;;;;;;-0.61;100.00;97086.63;4971245;28;19976;-94
2023/01/28 16:09:04;;;;;;;;;;;;;;;-0.72;100.00;97090.53;5019102;28;19970;-95
2023/01/28 16:11:45;;;;;;;;;;;;;;;-0.68;100.00;97093.00;5011650;28;19925;-95
2023/01/28 16:18:04;;;;;;;;;;;;;;;-0.67;100.00;97108.44;4989845;28;19979;-95
2023/01/28 16:20:31;;;;;;;;;;;;;;;-0.68;100.00;97105.91;4999056;28;20034;-96
2023/01/28 16:23:19;;;;;;;;;;;;;;;-0.69;100.00;97102.50;5015936;28;19922;-94
2023/01/28 16:26:07;;;;;;;;;;;;;;;-0.63;100.00;97103.97;5002880;28;19905;-95
2023/01/28 16:28:37;;;;;;;;;;;;;;;-0.69;100.00;97109.41;4998307;28;19948;-95
2023/01/28 16:31:05;;;;;;;;;;;;;;;-0.58;100.00;97113.16;4977682;28;19918;-93
2023/01/28 16:33:48;;;;;;;;;;;;;;;-0.65;100.00;97121.28;4977962;28;19948;-91
2023/01/28 16:36:19;;;;;;;;;;;;;;;-0.65;100.00;97124.69;4996196;28;19924;-93
2023/01/28 16:38:48;;;;;;;;;;;;;;;-0.71;100.00;97125.78;4977123;28;19918;-93
2023/01/28 16:41:35;;;;;;;;;;;;;;;-0.74;100.00;97128.53;4979141;28;19933;-93
2023/01/28 16:44:04;;;;;;;;;;;;;;;-0.73;100.00;97130.22;4987130;28;19921;-93
2023/01/28 16:46:32;;;;;;;;;;;;;;;-0.72;100.00;97126.72;5002171;28;19914;-93
2023/01/28 16:48:59;;;;;;;;;;;;;;;0.10;100.00;97126.41;4988894;28;19914;-94
2023/01/28 16:54:52;;;;;;;;;;;;;;;-0.38;100.00;97122.59;4998837;28;19921;-94
2023/01/28 17:00:46;;;;;;;;;;;;;;;-0.65;100.00;97134.19;4998785;28;19920;-93
2023/01/28 17:06:42;;;;;;;;;;;;;;;-0.75;100.00;97134.59;4978979;28;19925;-94
2023/01/28 17:12:36;;;;;;;;;;;;;;;-0.90;100.00;97134.44;5015292;28;19925;-94
2023/01/28 17:15:02;;;;;;;;;;;;;;;-0.49;100.00;97122.25;5014004;28;20357;-94
2023/01/28 17:17:28;;;;;;;;;;;;;;;0.45;100.00;97122.09;4963010;28;20055;-92
2023/01/28 17:23:23;;;;;;;;;;;;;;;1.49;100.00;97100.38;5004857;28;19982;-92
2023/01/28 17:25:48;;;;;;;;;;;;;;;1.77;100.00;97088.50;5005571;28;19914;-94
2023/01/28 17:28:14;;;;;;;;;;;;;;;2.17;100.00;97088.91;5003914;28;19921;-93
2023/01/28 17:31:07;;;;;;;;;;;;;;;1.85;100.00;97081.16;4993224;28;19944;-90
2023/01/28 17:33:35;;;;;;;;;;;;;;;0.93;100.00;97091.22;5003947;28;19949;-93
2023/01/28 17:39:29;;;;;;;;;;;;;;;0.41;100.00;97107.66;5014753;28;19920;-93
2023/01/28 17:41:55;;;;;;;;;;;;;;;-0.04;100.00;97124.44;4995412;28;19914;-93
2023/01/28 17:44:22;;;;;;;;;;;;;;;-0.38;100.00;97132.94;4994103;28;19949;-93
2023/01/28 17:46:48;;;;;;;;;;;;;;;-0.47;100.00;97135.94;4998660;28;19914;-92
2023/01/28 17:49:13;;;;;;;;;;;;;;;-0.56;100.00;97136.38;4977053;28;19922;-91
2023/01/28 17:51:40;;;;;;;;;;;;;;;-0.63;100.00;97140.13;4979052;28;19922;-91
2023/01/28 17:54:06;;;;;;;;;;;;;;;-0.58;100.00;97138.16;4978582;28;20016;-91
2023/01/28 17:56:31;;;;;;;;;;;;;;;-0.64;100.00;97135.84;4962851;28;20530;-91
2023/01/28 17:59:01;;;;;;;;;;;;;;;-0.54;100.00;97144.88;4978770;28;19913;-91
2023/01/28 18:01:26;;;;;;;;;;;;;;;-0.79;100.00;97148.56;4985659;28;20332;-91
2023/01/28 18:03:52;;;;;;;;;;;;;;;-0.74;100.00;97151.78;4983629;28;19910;-91
2023/01/28 18:06:18;;;;;;;;;;;;;;;-0.77;100.00;97154.50;4958067;28;19918;-91
2023/01/28 18:08:56;;;;;;;;;;;;;;;-0.82;100.00;97155.59;4933083;28;19937;-90
2023/01/28 18:11:22;;;;;;;;;;;;;;;-0.80;100.00;97159.78;4932864;28;19996;-90
2023/01/28 18:13:47;;;;;;;;;;;;;;;-0.93;100.00;97163.81;4941367;28;21303;-90
2023/01/28 18:16:16;;;;;;;;;;;;;;;-0.90;100.00;97161.09;4935805;28;19968;-90
2023/01/28 18:18:50;;;;;;;;;;;;;;;-0.12;100.00;97161.94;4948395;28;20024;-93
2023/01/28 18:21:37;;;;;;;;;;;;;;;-0.49;100.00;97168.78;4878597;28;20003;-93
2023/01/28 18:24:03;;;;;;;;;;;;;;;-0.72;100.00;97167.19;4833426;28;20050;-93
2023/01/28 18:26:28;;;;;;;;;;;;;;;-0.74;100.00;97166.41;4873353;28;19929;-92
2023/01/28 18:28:58;;;;;;;;;;;;;;;-0.82;100.00;97165.91;4878117;28;21613;-93
2023/01/28 18:31:24;;;;;;;;;;;;;;;-0.81;100.00;97157.25;4779221;28;21927;-92
2023/01/28 18:33:50;;;;;;;;;;;;;;;-0.88;100.00;97159.28;4856865;28;19922;-92
2023/01/28 18:36:35;;;;;;;;;;;;;;;-0.96;100.00;97154.44;4766625;28;19922;-93
2023/01/28 18:39:03;;;;;;;;;;;;;;;-0.98;100.00;97151.06;4796199;28;20412;-92
2023/01/28 18:41:35;;;;;;;;;;;;;;;-0.98;100.00;97152.81;4790991;28;20230;-93
2023/01/28 18:44:10;;;;;;;;;;;;;;;-0.92;100.00;97152.56;4750925;28;19917;-93
2023/01/28 18:46:36;;;;;;;;;;;;;;;-0.94;100.00;97151.78;4726450;28;19921;-93
2023/01/28 18:49:08;;;;;;;;;;;;;;;-0.98;100.00;97152.81;4767001;28;19948;-93
2023/01/28 18:51:34;;;;;;;;;;;;;;;-0.92;100.00;97154.31;4784201;28;19993;-93
2023/01/28 18:54:00;;;;;;;;;;;;;;;-0.79;100.00;97151.13;4841198;28;19918;-92
2023/01/28 18:56:27;;;;;;;;;;;;;;;-0.84;100.00;97159.97;4850235;28;19972;-92
2023/01/28 18:59:22;;;;;;;;;;;;;;;-0.83;100.00;97167.66;4848392;28;19920;-93
2023/01/28 19:01:50;;;;;;;;;;;;;;;-0.84;100.00;97168.59;4847279;28;21286;-90
2023/01/28 19:04:19;;;;;;;;;;;;;;;-0.88;100.00;97161.84;4843041;28;19913;-91
2023/01/28 19:06:50;;;;;;;;;;;;;;;-0.89;100.00;97173.09;4667341;28;20295;-86
2023/01/28 19:09:22;;;;;;;;;;;;;;;-0.74;100.00;97176.75;4610443;28;19917;-86
2023/01/28 19:11:51;;;;;;;;;;;;;;;-0.60;100.00;97174.41;4672570;28;20739;-82
2023/01/28 19:14:20;;;;;;;;;;;;;;;-0.69;100.00;97192.06;4800666;28;19917;-84
2023/01/28 19:16:48;;;;;;;;;;;;;;;-0.87;100.00;97196.25;4826653;28;19918;-84
2023/01/28 19:19:14;;;;;;;;;;;;;;;-0.85;100.00;97184.97;4835619;28;19921;-86
2023/01/28 19:21:45;;;;;;;;;;;;;;;-0.81;100.00;97196.84;4834791;28;19925;-83
2023/01/28 19:24:16;;;;;;;;;;;;;;;-0.88;100.00;97186.84;4836364;28;19917;-85
2023/01/28 19:26:43;;;;;;;;;;;;;;;-0.83;100.00;97192.66;4834247;28;19917;-84
2023/01/28 19:29:10;;;;;;;;;;;;;;;-0.87;100.00;97189.38;4815659;28;19922;-84
2023/01/28 19:31:37;;;;;;;;;;;;;;;-0.93;100.00;97189.63;4804907;28;20010;-84
2023/01/28 19:34:09;;;;;;;;;;;;;;;-1.01;100.00;97189.09;4958362;28;19923;-84
2023/01/28 19:36:38;;;;;;;;;;;;;;;-0.98;100.00;97188.97;4972167;28;19920;-85
2023/01/28 19:39:18;;;;;;;;;;;;;;;-1.12;100.00;97192.13;4996766;28;19937;-86
2023/01/28 19:41:44;;;;;;;;;;;;;;;-1.23;100.00;97197.75;4991443;28;19917;-85
2023/01/28 19:44:23;;;;;;;;;;;;;;;-1.24;100.00;97196.09;5006794;28;20356;-87
2023/01/28 19:46:49;;;;;;;;;;;;;;;-1.29;100.00;97202.31;4997999;28;19920;-85
2023/01/28 19:49:15;;;;;;;;;;;;;;;-1.28;100.00;97189.34;4954184;28;19917;-87
2023/01/28 19:51:59;;;;;;;;;;;;;;;-1.31;100.00;97202.41;4989818;28;20378;-86
2023/01/28 19:54:50;;;;;;;;;;;;;;;-1.44;100.00;97203.81;4958798;28;20388;-93
2023/01/28 19:57:26;;;;;;;;;;;;;;;-1.51;100.00;97195.47;4953420;28;20415;-84
2023/01/28 19:59:52;;;;;;;;;;;;;;;-1.54;100.00;97194.72;4989948;28;20380;-81
2023/01/28 20:02:20;;;;;;;;;;;;;;;-1.58;100.00;97198.34;4967511;28;19916;-83
2023/01/28 20:04:45;;;;;;;;;;;;;;;-1.63;100.00;97202.84;4975968;28;20000;-83
2023/01/28 20:07:20;;;;;;;;;;;;;;;-1.67;100.00;97200.38;4991322;28;19917;-84
2023/01/28 20:09:56;;;;;;;;;;;;;;;-1.83;100.00;97207.03;4979948;28;19924;-84
2023/01/28 20:12:23;;;;;;;;;;;;;;;-1.80;100.00;97206.94;4985817;28;19972;-84
2023/01/28 20:15:05;;;;;;;;;;;;;;;-1.85;100.00;97201.09;4972139;28;19913;-84
2023/01/28 20:17:32;;;;;;;;;;;;;;;-1.90;100.00;97203.03;4987161;28;19917;-83
2023/01/28 20:19:58;;;;;;;;;;;;;;;-1.98;100.00;97203.31;4966114;28;19913;-83
2023/01/28 20:22:38;;;;;;;;;;;;;;;-1.99;100.00;97205.94;4983087;28;19944;-84
2023/01/28 20:25:08;;;;;;;;;;;;;;;-2.01;100.00;97207.72;4983674;28;19913;-84
2023/01/28 20:27:44;;;;;;;;;;;;;;;-2.03;100.00;97209.53;4988591;28;19920;-84
2023/01/28 20:30:11;;;;;;;;;;;;;;;-2.08;100.00;97211.44;4986581;28;19993;-84
